createdAt,value
2023-03-05T00:01:24.856Z,100160.72
2023-03-05T00:03:53.461Z,100164.03
2023-03-05T00:06:21.612Z,100160.59
2023-03-05T00:08:49.563Z,100146.88
2023-03-05T00:11:17.595Z,100155.81
2023-03-05T00:13:45.232Z,100153.78
2023-03-05T00:16:16.659Z,100151.28
2023-03-05T00:18:44.830Z,100153.91
2023-03-05T00:21:20.173Z,100151.06
2023-03-05T00:23:47.935Z,100144.31
2023-03-05T00:26:15.629Z,100148.28
2023-03-05T00:28:43.496Z,100145.09
2023-03-05T00:31:11.150Z,100147.84
2023-03-05T00:33:40.146Z,100144.38
2023-03-05T00:36:08.864Z,100135.47
2023-03-05T00:38:36.656Z,100137.94
2023-03-05T00:41:04.642Z,100139.28
2023-03-05T00:43:32.463Z,100135.47
2023-03-05T00:46:00.099Z,100137.97
2023-03-05T00:48:27.886Z,100127.13
2023-03-05T00:50:57.186Z,100127.50
2023-03-05T00:53:24.876Z,100130.47
2023-03-05T00:55:52.607Z,100117.38
2023-03-05T00:58:20.187Z,100122.47
2023-03-05T01:00:50.457Z,100115.22
2023-03-05T01:03:18.216Z,100108.31
2023-03-05T01:05:46.354Z,100106.38
2023-03-05T01:08:15.897Z,100110.06
2023-03-05T01:10:43.559Z,100102.06
2023-03-05T01:13:11.152Z,100104.72
2023-03-05T01:15:38.807Z,100109.50
2023-03-05T01:18:06.795Z,100110.47
2023-03-05T01:20:34.361Z,100102.69
2023-03-05T01:23:02.121Z,100087.72
2023-03-05T01:25:31.128Z,100090.66
2023-03-05T01:27:58.885Z,100094.38
2023-03-05T01:30:26.432Z,100098.91
2023-03-05T01:32:54.111Z,100091.88
2023-03-05T01:35:25.029Z,100089.50
2023-03-05T01:38:18.692Z,100083.44
2023-03-05T01:40:47.891Z,100081.88
2023-03-05T01:43:27.940Z,100086.19
2023-03-05T01:46:29.074Z,100091.19
2023-03-05T01:49:02.729Z,100087.66
2023-03-05T01:51:36.301Z,100083.72
2023-03-05T01:54:05.910Z,100083.13
2023-03-05T01:56:35.288Z,100097.41
2023-03-05T01:59:04.455Z,100087.28
2023-03-05T02:01:37.809Z,100088.50
2023-03-05T02:04:06.556Z,100081.69
2023-03-05T02:06:34.881Z,100075.00
2023-03-05T02:09:02.548Z,100073.47
2023-03-05T02:11:30.624Z,100068.81
2023-03-05T02:13:59.812Z,100068.22
2023-03-05T02:16:29.171Z,100060.81
2023-03-05T02:18:57.007Z,100061.41
2023-03-05T02:21:39.029Z,100065.81
2023-03-05T02:24:07.492Z,100059.50
2023-03-05T02:26:35.463Z,100055.22
2023-03-05T02:29:06.473Z,100048.78
2023-03-05T02:31:34.286Z,100046.53
2023-03-05T02:34:01.994Z,100049.25
2023-03-05T02:36:30.959Z,100038.22
2023-03-05T02:38:59.106Z,100031.28
2023-03-05T02:41:27.313Z,100043.00
2023-03-05T02:43:54.986Z,100030.00
2023-03-05T02:46:22.615Z,100034.53
2023-03-05T02:48:50.862Z,100031.28
2023-03-05T02:51:18.981Z,100027.53
2023-03-05T02:53:47.976Z,100026.00
2023-03-05T02:56:15.571Z,100028.13
2023-03-05T02:58:43.243Z,100030.03
2023-03-05T03:01:11.626Z,100015.72
2023-03-05T03:03:39.566Z,100014.78
2023-03-05T03:06:08.763Z,100012.53
2023-03-05T03:08:37.562Z,100018.59
2023-03-05T03:11:09.358Z,100016.66
2023-03-05T03:13:37.230Z,100013.59
2023-03-05T03:16:05.929Z,100014.06
2023-03-05T03:18:33.782Z,100004.19
2023-03-05T03:21:01.792Z,100004.19
2023-03-05T03:23:29.432Z,100000.72
2023-03-05T03:25:57.092Z,100000.69
2023-03-05T03:28:26.657Z,100006.88
2023-03-05T03:30:54.420Z,100001.97
2023-03-05T03:33:22.391Z,99997.56
2023-03-05T03:35:50.094Z,99994.94
2023-03-05T03:38:17.721Z,99994.22
2023-03-05T03:40:45.394Z,99983.50
2023-03-05T03:43:13.035Z,99987.81
2023-03-05T03:45:48.728Z,99987.31
2023-03-05T03:48:16.592Z,99983.13
2023-03-05T03:50:45.203Z,99989.53
2023-03-05T03:53:14.187Z,99980.16
2023-03-05T03:55:43.251Z,99971.69
2023-03-05T03:58:11.308Z,99972.16
2023-03-05T04:00:39.925Z,99972.31
2023-03-05T04:03:09.000Z,99966.91
2023-03-05T04:05:36.679Z,99966.84
2023-03-05T04:08:04.586Z,99970.16
2023-03-05T04:10:32.209Z,99970.88
2023-03-05T04:12:59.830Z,99970.88
2023-03-05T04:15:27.463Z,99968.50
2023-03-05T04:17:55.158Z,99962.28
2023-03-05T04:20:24.163Z,99963.13
2023-03-05T04:22:51.798Z,99967.91
2023-03-05T04:25:19.388Z,99964.22
2023-03-05T04:27:47.003Z,99960.88
2023-03-05T04:30:16.017Z,99956.63
2023-03-05T04:32:43.661Z,99958.19
2023-03-05T04:35:12.123Z,99956.84
2023-03-05T04:37:41.414Z,99958.53
2023-03-05T04:40:10.098Z,99954.47
2023-03-05T04:42:37.741Z,99956.03
2023-03-05T04:45:06.742Z,99955.97
2023-03-05T04:47:34.818Z,99955.25
2023-03-05T04:50:02.481Z,99956.03
2023-03-05T04:52:30.240Z,99951.41
2023-03-05T04:54:59.281Z,99950.69
2023-03-05T04:57:27.035Z,99955.41
2023-03-05T04:59:54.681Z,99951.72
2023-03-05T05:02:22.378Z,99944.63
2023-03-05T05:04:53.495Z,99946.88
2023-03-05T05:07:21.287Z,99947.59
2023-03-05T05:09:48.907Z,99941.19
2023-03-05T05:12:17.957Z,99940.69
2023-03-05T05:14:45.524Z,99933.34
2023-03-05T05:17:13.101Z,99935.63
2023-03-05T05:19:40.768Z,99937.50
2023-03-05T05:22:08.732Z,99939.41
2023-03-05T05:24:36.429Z,99938.69
2023-03-05T05:27:04.266Z,99940.97
2023-03-05T05:29:33.280Z,99942.38
2023-03-05T05:32:00.974Z,99942.81
2023-03-05T05:34:28.619Z,99942.72
2023-03-05T05:36:56.209Z,99935.69
2023-03-05T05:39:23.797Z,99937.81
2023-03-05T05:41:52.199Z,99936.59
2023-03-05T05:44:20.312Z,99939.47
2023-03-05T05:46:49.406Z,99935.41
2023-03-05T05:49:17.003Z,99938.56
2023-03-05T05:51:44.749Z,99936.91
2023-03-05T05:54:14.365Z,99932.00
2023-03-05T05:56:42.313Z,99924.59
2023-03-05T05:59:12.187Z,99920.69
2023-03-05T06:01:40.021Z,99919.03
2023-03-05T06:04:09.131Z,99913.41
2023-03-05T06:06:36.810Z,99920.69
2023-03-05T06:09:05.354Z,99925.47
2023-03-05T06:11:33.956Z,99920.06
2023-03-05T06:14:02.890Z,99921.84
2023-03-05T06:16:30.969Z,99930.81
2023-03-05T06:18:58.976Z,99920.75
2023-03-05T06:21:28.001Z,99911.97
2023-03-05T06:23:55.676Z,99925.28
2023-03-05T06:26:23.984Z,99918.50
2023-03-05T06:28:53.255Z,99921.06
2023-03-05T06:31:25.620Z,99918.22
2023-03-05T06:33:54.819Z,99926.81
2023-03-05T06:36:24.134Z,99919.03
2023-03-05T06:38:53.672Z,99917.28
2023-03-05T06:41:23.197Z,99922.03
2023-03-05T06:43:51.229Z,99922.00
2023-03-05T06:46:20.894Z,99920.06
2023-03-05T06:48:50.015Z,99918.47
2023-03-05T06:51:19.650Z,99923.50
2023-03-05T06:53:49.485Z,99930.56
2023-03-05T06:56:19.499Z,99928.22
2023-03-05T06:58:49.234Z,99933.31
2023-03-05T07:01:17.965Z,99930.34
2023-03-05T07:03:46.071Z,99919.66
2023-03-05T07:06:15.847Z,99923.31
2023-03-05T07:08:44.710Z,99923.31
2023-03-05T07:11:13.497Z,99920.50
2023-03-05T07:13:43.401Z,99916.41
2023-03-05T07:16:14.513Z,99917.69
2023-03-05T07:18:42.553Z,99917.06
2023-03-05T07:21:13.167Z,99908.88
2023-03-05T07:23:40.776Z,99909.97
2023-03-05T07:26:08.550Z,99911.56
2023-03-05T07:28:36.258Z,99913.91
2023-03-05T07:31:07.988Z,99920.31
2023-03-05T07:33:37.094Z,99912.63
2023-03-05T07:36:05.291Z,99910.06
2023-03-05T07:38:33.332Z,99909.25
2023-03-05T07:41:03.407Z,99905.97
2023-03-05T07:43:31.065Z,99905.38
2023-03-05T07:45:58.763Z,99903.31
2023-03-05T07:48:27.856Z,99900.91
2023-03-05T07:51:02.147Z,99904.84
2023-03-05T07:53:29.909Z,99901.63
2023-03-05T07:55:57.682Z,99903.50
2023-03-05T07:58:25.363Z,99905.94
2023-03-05T08:00:53.025Z,99896.06
2023-03-05T08:03:20.688Z,99894.22
2023-03-05T08:05:49.680Z,99903.03
2023-03-05T08:08:17.573Z,99906.50
2023-03-05T08:10:45.401Z,99900.72
2023-03-05T08:13:13.109Z,99895.03
2023-03-05T08:15:40.972Z,99899.81
2023-03-05T08:18:08.776Z,99891.53
2023-03-05T08:20:37.257Z,99897.97
2023-03-05T08:23:06.248Z,99898.16
2023-03-05T08:25:33.882Z,99899.56
2023-03-05T08:28:01.557Z,99895.63
2023-03-05T08:30:29.319Z,99895.63
2023-03-05T08:32:57.398Z,99890.06
2023-03-05T08:35:25.431Z,99891.28
2023-03-05T08:37:53.150Z,99890.03
2023-03-05T08:40:22.180Z,99896.00
2023-03-05T08:42:51.903Z,99890.44
2023-03-05T08:45:19.658Z,99891.19
2023-03-05T08:47:47.406Z,99880.81
2023-03-05T08:50:15.082Z,99882.50
2023-03-05T08:52:42.707Z,99889.63
2023-03-05T08:55:12.597Z,99885.88
2023-03-05T08:57:41.611Z,99890.69
2023-03-05T09:00:12.570Z,99896.47
2023-03-05T09:02:40.405Z,99883.81
2023-03-05T09:05:09.171Z,99888.94
2023-03-05T09:07:37.784Z,99890.16
2023-03-05T09:10:06.848Z,99878.88
2023-03-05T09:12:34.517Z,99872.50
2023-03-05T09:15:03.535Z,99875.28
2023-03-05T09:17:31.286Z,99870.81
2023-03-05T09:19:58.908Z,99879.41
2023-03-05T09:22:26.635Z,99873.31
2023-03-05T09:24:54.546Z,99873.31
2023-03-05T09:27:22.600Z,99867.50
2023-03-05T09:29:52.507Z,99871.06
2023-03-05T09:32:21.617Z,99869.16
2023-03-05T09:34:49.263Z,99869.31
2023-03-05T09:37:16.921Z,99861.28
2023-03-05T09:39:44.677Z,99864.19
2023-03-05T09:42:29.302Z,99863.13
2023-03-05T09:45:10.794Z,99855.53
2023-03-05T09:47:50.553Z,99857.38
2023-03-05T09:50:33.803Z,99849.72
2023-03-05T09:53:06.039Z,99848.38
2023-03-05T09:55:40.414Z,99852.34
2023-03-05T09:58:14.585Z,99847.50
2023-03-05T10:00:45.171Z,99842.38
2023-03-05T10:03:20.571Z,99838.09
2023-03-05T10:06:12.003Z,99836.47
2023-03-05T10:08:52.296Z,99828.03
2023-03-05T10:11:38.547Z,99831.78
2023-03-05T10:14:08.242Z,99823.00
2023-03-05T10:16:54.096Z,99822.94
2023-03-05T10:19:40.855Z,99822.63
2023-03-05T10:22:17.053Z,99822.09
2023-03-05T10:24:57.434Z,99824.81
2023-03-05T10:27:40.732Z,99821.78
2023-03-05T10:30:24.508Z,99821.00
2023-03-05T10:33:00.776Z,99811.28
2023-03-05T10:35:50.245Z,99813.88
2023-03-05T10:38:37.355Z,99809.31
2023-03-05T10:41:14.795Z,99799.00
2023-03-05T10:43:50.784Z,99798.28
2023-03-05T10:46:21.955Z,99789.63
2023-03-05T10:48:54.308Z,99793.34
2023-03-05T10:51:30.671Z,99794.97
2023-03-05T10:54:00.710Z,99788.22
2023-03-05T10:56:31.820Z,99785.53
2023-03-05T10:58:59.670Z,99782.31
2023-03-05T11:01:29.490Z,99778.34
2023-03-05T11:03:59.253Z,99778.91
2023-03-05T11:06:46.666Z,99779.09
2023-03-05T11:09:18.724Z,99770.06
2023-03-05T11:12:02.669Z,99765.38
2023-03-05T11:14:33.332Z,99762.25
2023-03-05T11:17:02.412Z,99754.22
2023-03-05T11:19:33.087Z,99752.34
2023-03-05T11:22:16.872Z,99761.09
2023-03-05T11:24:46.566Z,99756.53
2023-03-05T11:27:31.643Z,99751.09
2023-03-05T11:29:59.771Z,99755.69
2023-03-05T11:32:29.814Z,99746.22
2023-03-05T11:34:58.241Z,99748.53
2023-03-05T11:37:29.498Z,99745.94
2023-03-05T11:40:19.026Z,99741.94
2023-03-05T11:42:56.939Z,99737.03
2023-03-05T11:45:25.910Z,99729.63
2023-03-05T11:47:56.999Z,99736.25
2023-03-05T11:50:27.631Z,99729.28
2023-03-05T11:52:59.097Z,99729.19
2023-03-05T11:55:31.007Z,99723.81
2023-03-05T11:58:18.385Z,99724.22
2023-03-05T12:00:48.279Z,99721.78
2023-03-05T12:03:20.005Z,99721.66
2023-03-05T12:05:50.683Z,99718.06
2023-03-05T12:08:25.617Z,99712.53
2023-03-05T12:10:53.808Z,99702.50
2023-03-05T12:13:28.328Z,99702.81
2023-03-05T12:16:07.417Z,99695.66
2023-03-05T12:18:43.437Z,99690.41
2023-03-05T12:21:18.850Z,99690.34
2023-03-05T12:23:51.322Z,99688.75
2023-03-05T12:26:19.803Z,99679.06
2023-03-05T12:28:56.852Z,99677.16
2023-03-05T12:31:37.772Z,99674.28
2023-03-05T12:34:51.409Z,99655.84
2023-03-05T12:38:25.691Z,99669.22
2023-03-05T12:41:34.277Z,99673.56
2023-03-05T12:44:19.359Z,99666.84
2023-03-05T12:47:02.439Z,99663.28
2023-03-05T12:49:30.729Z,99657.47
2023-03-05T12:52:00.058Z,99659.84
2023-03-05T12:54:34.384Z,99649.19
2023-03-05T12:57:07.190Z,99656.84
2023-03-05T12:59:43.979Z,99643.00
2023-03-05T13:02:22.853Z,99649.66
2023-03-05T13:04:53.118Z,99639.31
2023-03-05T13:07:20.857Z,99635.09
2023-03-05T13:09:59.016Z,99639.00
2023-03-05T13:12:30.704Z,99634.69
2023-03-05T13:15:01.078Z,99632.56
2023-03-05T13:17:32.554Z,99632.94
2023-03-05T13:20:01.472Z,99627.56
2023-03-05T13:22:30.591Z,99621.63
2023-03-05T13:25:20.597Z,99624.56
2023-03-05T13:27:49.630Z,99614.16
2023-03-05T13:30:25.339Z,99615.66
2023-03-05T13:32:55.928Z,99620.72
2023-03-05T13:35:24.056Z,99610.16
2023-03-05T13:37:52.061Z,99603.94
2023-03-05T13:40:23.360Z,99601.63
2023-03-05T13:42:54.262Z,99604.72
2023-03-05T13:45:26.177Z,99605.31
2023-03-05T13:47:56.172Z,99599.97
2023-03-05T13:50:27.009Z,99605.03
2023-03-05T13:52:55.115Z,99600.25
2023-03-05T13:55:23.099Z,99595.59
2023-03-05T13:57:53.894Z,99589.72
2023-03-05T14:00:34.567Z,99592.63
2023-03-05T14:03:10.813Z,99595.56
2023-03-05T14:05:43.606Z,99589.06
2023-03-05T14:08:21.705Z,99581.84
2023-03-05T14:10:49.808Z,99580.53
2023-03-05T14:13:23.581Z,99580.19
2023-03-05T14:16:05.530Z,99572.34
2023-03-05T14:18:33.568Z,99566.97
2023-03-05T14:21:07.557Z,99558.25
2023-03-05T14:23:41.560Z,99558.66
2023-03-05T14:26:23.878Z,99557.63
2023-03-05T14:28:55.456Z,99554.94
2023-03-05T14:31:25.235Z,99556.63
2023-03-05T14:33:54.357Z,99550.91
2023-03-05T14:36:25.486Z,99547.91
2023-03-05T14:38:54.598Z,99541.59
2023-03-05T14:41:40.194Z,99535.00
2023-03-05T14:44:15.230Z,99533.50
2023-03-05T14:46:43.516Z,99529.59
2023-03-05T14:49:11.296Z,99526.06
2023-03-05T14:51:41.608Z,99527.38
2023-03-05T14:54:19.754Z,99515.34
2023-03-05T14:56:47.954Z,99514.25
2023-03-05T14:59:16.982Z,99506.25
2023-03-05T15:01:45.015Z,99508.94
2023-03-05T15:04:15.478Z,99505.03
2023-03-05T15:06:48.015Z,99500.53
2023-03-05T15:09:17.711Z,99492.91
2023-03-05T15:11:45.625Z,99489.25
2023-03-05T15:14:13.301Z,99492.78
2023-03-05T15:16:45.058Z,99478.94
2023-03-05T15:19:13.515Z,99470.53
2023-03-05T15:21:41.545Z,99469.72
2023-03-05T15:24:11.292Z,99466.00
2023-03-05T15:26:39.417Z,99459.25
2023-03-05T15:29:07.143Z,99458.41
2023-03-05T15:31:38.408Z,99444.81
2023-03-05T15:34:08.064Z,99441.19
2023-03-05T15:36:35.744Z,99438.78
2023-03-05T15:39:03.400Z,99434.13
2023-03-05T15:41:31.019Z,99429.94
2023-03-05T15:43:58.629Z,99423.47
2023-03-05T15:46:26.307Z,99417.91
2023-03-05T15:48:54.047Z,99411.69
2023-03-05T15:51:23.081Z,99411.31
2023-03-05T15:53:50.706Z,99407.91
2023-03-05T15:56:19.340Z,99405.84
2023-03-05T15:58:49.481Z,99401.03
2023-03-05T16:01:19.177Z,99400.59
2023-03-05T16:03:47.031Z,99401.81
2023-03-05T16:06:16.500Z,99402.13
2023-03-05T16:08:45.538Z,99398.53
2023-03-05T16:11:14.115Z,99394.25
2023-03-05T16:13:43.076Z,99395.78
2023-03-05T16:16:11.390Z,99395.56
2023-03-05T16:18:42.843Z,99395.19
2023-03-05T16:21:11.394Z,99390.91
2023-03-05T16:23:39.146Z,99395.03
2023-03-05T16:26:09.060Z,99387.69
2023-03-05T16:28:36.661Z,99392.09
2023-03-05T16:31:04.461Z,99387.72
2023-03-05T16:33:32.117Z,99377.38
2023-03-05T16:36:25.339Z,99380.75
2023-03-05T16:38:55.327Z,99377.22
2023-03-05T16:41:26.612Z,99369.78
2023-03-05T16:43:56.340Z,99369.59
2023-03-05T16:46:24.470Z,99373.34
2023-03-05T16:48:52.209Z,99365.66
2023-03-05T16:51:20.890Z,99370.31
2023-03-05T16:53:48.740Z,99366.66
2023-03-05T16:56:16.457Z,99373.97
2023-03-05T16:58:45.503Z,99366.94
2023-03-05T17:01:15.401Z,99371.09
2023-03-05T17:03:44.029Z,99364.31
2023-03-05T17:06:14.013Z,99366.34
2023-03-05T17:08:42.859Z,99364.66
2023-03-05T17:11:12.336Z,99363.09
2023-03-05T17:13:40.774Z,99360.91
2023-03-05T17:16:11.811Z,99366.75
2023-03-05T17:18:39.817Z,99365.38
2023-03-05T17:21:08.139Z,99368.59
2023-03-05T17:23:36.254Z,99367.38
2023-03-05T17:26:05.105Z,99365.00
2023-03-05T17:28:33.125Z,99358.22
2023-03-05T17:31:01.404Z,99363.69
2023-03-05T17:33:31.132Z,99365.28
2023-03-05T17:35:58.971Z,99361.19
2023-03-05T17:38:27.324Z,99360.41
2023-03-05T17:40:55.258Z,99368.69
2023-03-05T17:43:23.732Z,99363.09
2023-03-05T17:45:51.549Z,99367.97
2023-03-05T17:48:19.240Z,99372.97
2023-03-05T17:50:48.231Z,99365.53
2023-03-05T17:53:15.900Z,99367.59
2023-03-05T17:55:44.019Z,99360.56
2023-03-05T17:58:11.772Z,99366.25
2023-03-05T18:00:39.604Z,99367.75
2023-03-05T18:03:07.316Z,99364.41
2023-03-05T18:05:35.393Z,99363.53
2023-03-05T18:08:05.081Z,99364.53
2023-03-05T18:10:33.380Z,99361.69
2023-03-05T18:13:01.535Z,99357.22
2023-03-05T18:15:30.496Z,99358.19
2023-03-05T18:17:58.587Z,99350.63
2023-03-05T18:20:30.197Z,99355.88
2023-03-05T18:22:59.369Z,99353.53
2023-03-05T18:25:31.274Z,99351.59
2023-03-05T18:28:00.123Z,99343.75
2023-03-05T18:30:29.123Z,99343.53
2023-03-05T18:32:57.216Z,99331.94
2023-03-05T18:35:25.086Z,99332.69
2023-03-05T18:37:52.879Z,99335.19
2023-03-05T18:40:22.690Z,99329.81
2023-03-05T18:42:51.913Z,99326.59
2023-03-05T18:45:22.533Z,99321.63
2023-03-05T18:47:54.039Z,99320.38
2023-03-05T18:50:23.071Z,99325.91
2023-03-05T18:52:50.814Z,99325.25
2023-03-05T18:55:20.281Z,99316.72
2023-03-05T18:57:49.172Z,99316.44
2023-03-05T19:00:20.373Z,99312.03
2023-03-05T19:02:48.072Z,99314.59
2023-03-05T19:05:16.732Z,99320.28
2023-03-05T19:07:44.768Z,99309.53
2023-03-05T19:10:14.289Z,99316.72
2023-03-05T19:12:49.768Z,99306.28
2023-03-05T19:15:19.197Z,99306.41
2023-03-05T19:17:47.794Z,99303.22
2023-03-05T19:20:17.021Z,99300.16
2023-03-05T19:22:45.136Z,99302.50
2023-03-05T19:25:13.702Z,99304.88
2023-03-05T19:27:41.425Z,99301.03
2023-03-05T19:30:12.758Z,99295.66
2023-03-05T19:32:41.864Z,99287.41
2023-03-05T19:35:10.530Z,99283.78
2023-03-05T19:37:38.247Z,99285.16
2023-03-05T19:40:07.176Z,99284.34
2023-03-05T19:42:36.176Z,99282.56
2023-03-05T19:45:04.070Z,99280.50
2023-03-05T19:47:31.841Z,99281.09
2023-03-05T19:50:00.940Z,99282.16
2023-03-05T19:52:28.777Z,99271.41
2023-03-05T19:54:56.968Z,99271.09
2023-03-05T19:57:24.861Z,99267.00
2023-03-05T19:59:53.490Z,99266.06
2023-03-05T20:02:22.004Z,99271.00
2023-03-05T20:04:49.971Z,99268.28
2023-03-05T20:07:19.798Z,99273.41
2023-03-05T20:09:48.852Z,99267.53
2023-03-05T20:12:16.668Z,99277.38
2023-03-05T20:14:44.325Z,99267.59
2023-03-05T20:17:12.108Z,99264.56
2023-03-05T20:19:39.896Z,99256.41
2023-03-05T20:22:07.650Z,99253.91
2023-03-05T20:24:37.302Z,99255.31
2023-03-05T20:27:05.204Z,99256.31
2023-03-05T20:29:32.947Z,99252.25
2023-03-05T20:32:02.618Z,99244.69
2023-03-05T20:34:31.437Z,99245.09
2023-03-05T20:36:59.377Z,99251.59
2023-03-05T20:39:27.230Z,99244.03
2023-03-05T20:41:56.330Z,99241.00
2023-03-05T20:44:24.304Z,99240.03
2023-03-05T20:47:02.746Z,99238.94
2023-03-05T20:49:30.516Z,99236.19
2023-03-05T20:51:58.240Z,99235.66
2023-03-05T20:54:27.296Z,99234.72
2023-03-05T20:56:56.563Z,99226.28
2023-03-05T20:59:24.753Z,99233.47
2023-03-05T21:01:52.496Z,99232.63
2023-03-05T21:04:20.300Z,99223.97
2023-03-05T21:06:52.515Z,99232.31
2023-03-05T21:09:20.102Z,99227.00
2023-03-05T21:11:47.893Z,99227.66
2023-03-05T21:14:16.913Z,99220.91
2023-03-05T21:16:44.638Z,99216.19
2023-03-05T21:19:12.359Z,99215.69
2023-03-05T21:21:44.680Z,99214.16
2023-03-05T21:24:12.684Z,99208.47
2023-03-05T21:26:40.273Z,99206.03
2023-03-05T21:29:07.952Z,99204.06
2023-03-05T21:31:37.394Z,99202.84
2023-03-05T21:34:05.121Z,99201.72
2023-03-05T21:36:32.757Z,99196.25
2023-03-05T21:39:00.696Z,99190.31
2023-03-05T21:41:28.540Z,99183.38
2023-03-05T21:43:56.266Z,99180.22
2023-03-05T21:46:23.880Z,99178.31
2023-03-05T21:48:53.073Z,99180.50
2023-03-05T21:51:26.727Z,99175.94
2023-03-05T21:53:54.594Z,99171.97
2023-03-05T21:56:24.420Z,99169.69
2023-03-05T21:58:52.736Z,99165.59
2023-03-05T22:01:21.387Z,99166.56
2023-03-05T22:03:50.430Z,99152.94
2023-03-05T22:06:20.534Z,99151.53
2023-03-05T22:08:48.630Z,99145.78
2023-03-05T22:11:17.919Z,99140.41
2023-03-05T22:13:45.788Z,99134.47
2023-03-05T22:16:22.004Z,99133.72
2023-03-05T22:18:49.621Z,99129.97
2023-03-05T22:21:21.642Z,99124.03
2023-03-05T22:23:49.729Z,99124.72
2023-03-05T22:26:17.783Z,99119.00
2023-03-05T22:28:45.548Z,99113.38
2023-03-05T22:31:20.703Z,99110.22
2023-03-05T22:33:48.532Z,99106.88
2023-03-05T22:36:16.136Z,99099.13
2023-03-05T22:38:45.521Z,99090.97
2023-03-05T22:41:15.162Z,99106.63
2023-03-05T22:43:43.051Z,99098.91
2023-03-05T22:46:11.610Z,99098.66
2023-03-05T22:48:39.542Z,99090.78
2023-03-05T22:51:07.823Z,99088.44
2023-03-05T22:53:35.692Z,99089.13
2023-03-05T22:56:08.561Z,99089.13
2023-03-05T22:58:36.912Z,99080.59
2023-03-05T23:01:11.364Z,99073.66
2023-03-05T23:03:39.106Z,99062.50
2023-03-05T23:06:07.545Z,99074.09
2023-03-05T23:08:35.650Z,99071.50
2023-03-05T23:11:10.657Z,99068.19
2023-03-05T23:13:38.413Z,99067.13
2023-03-05T23:16:06.776Z,99050.13
2023-03-05T23:18:34.792Z,99056.28
2023-03-05T23:21:02.410Z,99054.19
2023-03-05T23:23:30.210Z,99052.00
2023-03-05T23:25:57.919Z,99048.94
2023-03-05T23:28:26.995Z,99050.31
2023-03-05T23:30:54.722Z,99041.97
2023-03-05T23:33:24.722Z,99046.00
2023-03-05T23:35:54.400Z,99044.47
2023-03-05T23:38:23.482Z,99041.28
2023-03-05T23:40:53.879Z,99039.94
2023-03-05T23:43:24.511Z,99042.94
2023-03-05T23:45:54.979Z,99037.19
2023-03-05T23:48:23.728Z,99036.81
2023-03-05T23:50:51.704Z,99036.06
2023-03-05T23:53:21.434Z,99045.22
2023-03-05T23:55:49.551Z,99041.34
2023-03-05T23:58:18.929Z,99035.81
